Time;durP1;ratioP1;P1;durP2;ratioP2;P2;SDS_P1;SDS_P2;PMS_P1;PMS_P2;Temp;Humidity;BMP_temperature;BMP_pressure;BME280_temperature;BME280_humidity;BME280_pressure;Samples;Min_cycle;Max_cycle;Signal;HPM_P1;HPM_P2
2022/05/31 00:01:54;;;;;;;0.60;0.60;;;20.60;84.60;;;;;;4926947;29;20466;-61
2022/05/31 00:04:27;;;;;;;1.10;1.00;;;20.60;83.70;;;;;;4926171;29;20433;-61
2022/05/31 00:07:04;;;;;;;0.70;0.60;;;20.70;85.70;;;;;;4926847;29;20457;-61
2022/05/31 00:09:35;;;;;;;0.57;0.50;;;21.00;85.10;;;;;;4925739;29;20438;-61
2022/05/31 00:12:09;;;;;;;0.70;0.70;;;21.20;79.40;;;;;;4926584;29;20493;-61
2022/05/31 00:14:40;;;;;;;0.50;0.40;;;21.20;80.00;;;;;;4926482;29;20535;-61
2022/05/31 00:17:16;;;;;;;1.13;0.83;;;20.80;81.20;;;;;;4926712;29;20438;-61
2022/05/31 00:19:47;;;;;;;0.67;0.50;;;20.70;80.90;;;;;;4926468;29;20494;-61
2022/05/31 00:22:19;;;;;;;1.13;1.03;;;20.70;77.70;;;;;;4926540;29;20458;-61
2022/05/31 00:24:51;;;;;;;0.70;0.70;;;20.50;83.00;;;;;;4925705;29;20425;-61
2022/05/31 00:27:28;;;;;;;1.77;1.37;;;20.50;82.20;;;;;;4926269;29;20421;-61
2022/05/31 00:29:59;;;;;;;0.90;0.90;;;20.30;82.80;;;;;;4926358;29;20463;-61
2022/05/31 00:32:32;;;;;;;0.83;0.83;;;20.20;83.00;;;;;;4926145;29;20436;-61
2022/05/31 00:35:16;;;;;;;1.30;1.20;;;20.10;82.60;;;;;;4926419;29;20518;-61
2022/05/31 00:37:48;;;;;;;1.20;1.10;;;19.70;85.70;;;;;;4926369;29;20463;-61
2022/05/31 00:40:30;;;;;;;1.47;1.00;;;19.30;85.40;;;;;;4925029;29;20419;-61
2022/05/31 00:43:05;;;;;;;1.50;1.40;;;19.20;88.00;;;;;;4926769;29;20433;-60
2022/05/31 00:45:40;;;;;;;0.93;0.93;;;19.10;88.60;;;;;;4925797;29;20613;-61
2022/05/31 00:48:23;;;;;;;1.07;1.00;;;19.00;89.60;;;;;;4925457;29;20507;-60
2022/05/31 00:50:57;;;;;;;0.90;0.90;;;18.70;91.00;;;;;;4925888;29;20454;-61
2022/05/31 00:53:38;;;;;;;1.03;1.03;;;18.50;91.20;;;;;;4925832;29;20425;-61
2022/05/31 00:56:26;;;;;;;1.73;1.00;;;18.30;90.70;;;;;;4925612;29;20425;-61
2022/05/31 00:59:05;;;;;;;0.90;0.90;;;18.20;91.70;;;;;;4925518;29;20537;-61
2022/05/31 01:01:47;;;;;;;1.67;1.57;;;18.10;91.50;;;;;;4926429;29;20863;-61
2022/05/31 01:04:18;;;;;;;1.73;0.93;;;18.10;91.50;;;;;;4925884;29;20443;-60
2022/05/31 01:06:49;;;;;;;2.30;1.37;;;18.00;92.20;;;;;;4926091;29;20477;-61
2022/05/31 01:09:20;;;;;;;2.03;1.30;;;17.90;91.90;;;;;;4924354;29;20454;-60
2022/05/31 01:11:51;;;;;;;2.90;1.50;;;17.90;91.30;;;;;;4927428;29;20463;-61
2022/05/31 01:14:23;;;;;;;3.00;1.40;;;17.90;91.90;;;;;;4931835;29;20887;-60
2022/05/31 01:16:59;;;;;;;2.20;1.20;;;18.00;90.50;;;;;;4931973;29;20405;-60
2022/05/31 01:22:37;;;;;;;1.37;1.33;;;18.00;90.90;;;;;;4932180;29;20421;-60
2022/05/31 01:25:23;;;;;;;2.00;1.40;;;18.10;92.50;;;;;;4930429;29;20472;-60
2022/05/31 01:28:10;;;;;;;1.50;1.20;;;18.20;91.60;;;;;;4931699;29;20928;-60
2022/05/31 01:30:47;;;;;;;2.60;1.20;;;18.30;91.10;;;;;;4920875;29;20459;-60
2022/05/31 01:33:24;;;;;;;1.93;1.40;;;18.20;91.40;;;;;;4912806;29;20433;-60
2022/05/31 01:36:03;;;;;;;1.00;1.00;;;18.20;91.80;;;;;;4912636;29;20482;-60
2022/05/31 01:38:42;;;;;;;1.60;1.20;;;18.30;90.70;;;;;;4912446;29;20504;-60
2022/05/31 01:41:21;;;;;;;1.33;1.23;;;18.10;90.30;;;;;;4920510;29;20782;-60
2022/05/31 01:44:04;;;;;;;1.27;1.17;;;18.10;89.20;;;;;;4931551;29;20413;-60
2022/05/31 01:46:37;;;;;;;1.93;1.33;;;18.00;91.40;;;;;;4931898;29;20481;-60
2022/05/31 01:49:13;;;;;;;1.60;1.50;;;17.90;90.80;;;;;;4931116;29;20450;-60
2022/05/31 01:51:47;;;;;;;1.47;1.37;;;18.00;91.60;;;;;;4931496;29;20458;-60
2022/05/31 01:54:21;;;;;;;2.30;1.90;;;17.90;92.20;;;;;;4930600;29;20967;-60
2022/05/31 01:56:57;;;;;;;3.63;1.30;;;17.90;91.80;;;;;;4931562;29;20429;-60
2022/05/31 01:59:32;;;;;;;1.33;1.23;;;17.90;92.40;;;;;;4931244;29;20520;-60
2022/05/31 02:02:03;;;;;;;2.27;2.07;;;18.00;91.60;;;;;;4931948;29;20439;-60
2022/05/31 02:04:37;;;;;;;1.63;1.53;;;17.90;92.20;;;;;;4927191;29;20860;-60
2022/05/31 02:07:12;;;;;;;1.60;1.50;;;17.80;92.30;;;;;;4913018;29;20539;-60
2022/05/31 02:09:51;;;;;;;2.13;1.80;;;17.80;92.50;;;;;;4911488;29;20870;-60
2022/05/31 02:12:37;;;;;;;2.13;1.40;;;17.80;93.10;;;;;;4912685;29;20536;-60
2022/05/31 02:15:18;;;;;;;2.33;1.93;;;17.80;92.90;;;;;;4912327;29;20477;-60
2022/05/31 02:17:49;;;;;;;1.60;1.50;;;17.90;93.60;;;;;;4912619;29;20432;-60
2022/05/31 02:20:20;;;;;;;1.50;1.40;;;17.90;93.60;;;;;;4925930;29;20483;-60
2022/05/31 02:22:53;;;;;;;1.63;1.30;;;18.00;93.90;;;;;;4930725;29;20454;-60
2022/05/31 02:25:26;;;;;;;1.70;1.30;;;18.00;93.50;;;;;;4926745;29;20445;-60
2022/05/31 02:27:59;;;;;;;1.20;1.13;;;18.00;93.80;;;;;;4928708;29;20548;-60
2022/05/31 02:30:30;;;;;;;1.40;1.30;;;17.90;94.00;;;;;;4928065;29;20574;-60
2022/05/31 02:33:01;;;;;;;1.13;1.03;;;17.80;94.20;;;;;;4928355;29;20462;-60
2022/05/31 02:35:32;;;;;;;1.40;1.30;;;17.70;94.40;;;;;;4928392;29;20435;-60
2022/05/31 02:38:03;;;;;;;1.70;1.60;;;17.60;94.60;;;;;;4928304;29;20518;-60
2022/05/31 02:40:41;;;;;;;1.50;1.40;;;17.40;95.00;;;;;;4926831;29;20494;-60
2022/05/31 02:43:15;;;;;;;2.20;1.33;;;17.20;96.40;;;;;;4928324;29;20459;-60
2022/05/31 02:45:49;;;;;;;1.20;1.10;;;17.00;95.90;;;;;;4927933;29;20478;-60
2022/05/31 02:48:19;;;;;;;1.60;1.50;;;16.90;96.20;;;;;;4928182;29;20450;-60
2022/05/31 02:50:58;;;;;;;1.50;1.37;;;16.70;96.20;;;;;;4927846;29;20449;-60
2022/05/31 02:53:31;;;;;;;1.50;1.40;;;16.60;97.90;;;;;;4928106;29;20467;-60
2022/05/31 02:56:06;;;;;;;1.43;1.37;;;16.50;97.70;;;;;;4927012;29;20525;-60
2022/05/31 02:58:41;;;;;;;1.20;1.10;;;16.40;98.10;;;;;;4927773;29;20462;-60
2022/05/31 03:01:28;;;;;;;1.60;1.50;;;16.30;98.80;;;;;;4927701;29;20493;-60
2022/05/31 03:03:59;;;;;;;1.90;1.50;;;16.20;99.30;;;;;;4927737;29;20454;-60
2022/05/31 03:06:32;;;;;;;1.90;1.80;;;16.20;99.30;;;;;;4908927;29;20916;-60
2022/05/31 03:09:03;;;;;;;1.60;1.50;;;16.10;99.90;;;;;;4907789;29;20517;-60
2022/05/31 03:11:43;;;;;;;2.20;1.50;;;16.10;99.90;;;;;;4908775;29;20580;-60
2022/05/31 03:14:25;;;;;;;2.90;2.03;;;16.00;99.90;;;;;;4908641;29;20456;-60
2022/05/31 03:17:02;;;;;;;1.70;1.47;;;15.90;99.90;;;;;;4908867;29;20455;-60
2022/05/31 03:19:37;;;;;;;2.10;1.90;;;15.90;99.90;;;;;;4908107;29;20499;-59
2022/05/31 03:22:11;;;;;;;1.90;1.63;;;15.70;99.90;;;;;;4908736;29;20463;-60
2022/05/31 03:24:45;;;;;;;1.97;1.50;;;15.70;99.90;;;;;;4907802;29;20443;-60
2022/05/31 03:27:17;;;;;;;1.70;1.60;;;15.60;99.90;;;;;;4909113;29;20560;-60
2022/05/31 03:29:52;;;;;;;1.37;1.27;;;15.60;99.90;;;;;;4908175;29;20511;-60
2022/05/31 03:32:24;;;;;;;2.20;1.50;;;15.60;99.90;;;;;;4908441;29;20455;-60
2022/05/31 03:34:55;;;;;;;1.63;1.53;;;15.50;99.90;;;;;;4907783;29;20474;-60
2022/05/31 03:37:25;;;;;;;1.50;1.40;;;15.50;99.90;;;;;;4908420;29;20459;-59
2022/05/31 03:39:59;;;;;;;1.70;1.60;;;15.40;99.90;;;;;;4906899;29;20495;-61
2022/05/31 03:42:31;;;;;;;1.87;1.67;;;15.40;99.90;;;;;;4927126;29;20450;-61
2022/05/31 03:45:03;;;;;;;2.10;1.40;;;15.30;99.90;;;;;;4926745;29;20547;-61
2022/05/31 03:47:36;;;;;;;1.40;1.23;;;15.20;99.90;;;;;;4927186;29;20513;-61
2022/05/31 03:50:07;;;;;;;1.27;1.17;;;15.10;99.90;;;;;;4926635;29;20451;-61
2022/05/31 03:52:38;;;;;;;1.80;1.60;;;15.10;99.90;;;;;;4927192;29;20518;-61
2022/05/31 03:55:14;;;;;;;1.93;1.70;;;15.00;99.90;;;;;;4926033;29;20531;-61
2022/05/31 03:57:48;;;;;;;1.60;1.50;;;14.90;99.90;;;;;;4927385;29;20450;-61
2022/05/31 04:00:26;;;;;;;1.77;1.63;;;14.80;99.90;;;;;;4926712;29;20594;-61
2022/05/31 04:02:57;;;;;;;1.40;1.30;;;14.80;99.90;;;;;;4926910;29;20637;-61
2022/05/31 04:05:31;;;;;;;1.33;1.23;;;14.70;99.90;;;;;;4926623;29;20467;-61
2022/05/31 04:08:08;;;;;;;1.53;1.43;;;14.60;99.90;;;;;;4926782;29;20457;-61
2022/05/31 04:10:42;;;;;;;2.93;1.33;;;14.60;99.90;;;;;;4925421;29;20465;-61
2022/05/31 04:13:16;;;;;;;1.77;1.20;;;14.50;99.90;;;;;;4926712;29;20435;-61
2022/05/31 04:15:47;;;;;;;1.50;1.40;;;14.40;99.90;;;;;;4926758;29;20522;-61
2022/05/31 04:18:21;;;;;;;3.40;1.73;;;14.40;99.90;;;;;;4926202;29;20454;-61
2022/05/31 04:20:52;;;;;;;2.93;1.40;;;14.30;99.90;;;;;;4926128;29;20529;-61
2022/05/31 04:26:12;;;;;;;1.70;1.50;;;14.20;99.90;;;;;;4925958;29;20450;-61
2022/05/31 04:28:48;;;;;;;1.87;1.43;;;14.20;99.90;;;;;;4926311;29;20527;-61
2022/05/31 04:31:21;;;;;;;1.77;1.20;;;14.10;99.90;;;;;;4910934;29;20469;-64
2022/05/31 04:33:52;;;;;;;1.63;1.40;;;14.00;99.90;;;;;;4917478;29;20463;-61
2022/05/31 04:36:26;;;;;;;1.30;1.20;;;14.00;99.90;;;;;;4926488;29;20447;-61
2022/05/31 04:41:47;;;;;;;1.43;1.33;;;13.90;99.90;;;;;;4924016;29;20522;-61
2022/05/31 04:44:20;;;;;;;1.70;1.60;;;13.90;99.90;;;;;;4925956;29;20949;-61
2022/05/31 04:46:50;;;;;;;1.67;1.53;;;13.80;99.90;;;;;;4925299;29;20496;-61
2022/05/31 04:49:21;;;;;;;1.50;1.30;;;13.80;99.90;;;;;;4925969;29;20530;-60
2022/05/31 04:51:58;;;;;;;2.87;1.47;;;13.70;99.90;;;;;;4925593;29;20474;-61
2022/05/31 04:54:35;;;;;;;2.20;1.53;;;13.70;99.90;;;;;;4925211;29;21201;-61
2022/05/31 04:57:07;;;;;;;1.37;1.10;;;13.60;99.90;;;;;;4926102;29;20953;-61
2022/05/31 04:59:41;;;;;;;1.80;1.53;;;13.60;99.90;;;;;;4926007;29;20477;-59
2022/05/31 05:02:12;;;;;;;1.40;1.30;;;13.60;99.90;;;;;;4925044;29;20501;-60
2022/05/31 05:04:43;;;;;;;1.80;1.33;;;13.70;99.90;;;;;;4921039;29;20451;-60
2022/05/31 05:07:17;;;;;;;1.90;1.57;;;13.70;99.90;;;;;;4907527;29;20818;-59
2022/05/31 05:09:48;;;;;;;3.10;1.70;;;13.70;99.90;;;;;;4905999;29;20448;-59
2022/05/31 05:12:41;;;;;;;1.40;1.30;;;13.70;99.90;;;;;;4906990;29;20515;-59
2022/05/31 05:15:18;;;;;;;2.17;1.77;;;13.70;99.90;;;;;;4906771;29;20455;-60
2022/05/31 05:17:49;;;;;;;4.33;1.50;;;13.60;99.90;;;;;;4907036;29;20469;-60
2022/05/31 05:20:22;;;;;;;3.93;2.10;;;13.60;99.90;;;;;;4919849;29;20550;-60
2022/05/31 05:22:56;;;;;;;1.50;1.40;;;13.60;99.90;;;;;;4926052;29;20454;-60
2022/05/31 05:25:29;;;;;;;3.53;1.80;;;13.40;99.90;;;;;;4920687;29;20443;-60
2022/05/31 05:28:00;;;;;;;2.93;1.73;;;13.40;99.90;;;;;;4907132;29;20451;-60
2022/05/31 05:30:40;;;;;;;1.60;1.23;;;13.40;99.90;;;;;;4906666;29;20535;-60
2022/05/31 05:33:26;;;;;;;1.30;1.20;;;13.30;99.90;;;;;;4906930;29;20455;-60
2022/05/31 05:36:00;;;;;;;1.57;1.47;;;13.30;99.90;;;;;;4906803;29;20502;-60
2022/05/31 05:38:31;;;;;;;1.60;1.50;;;13.30;99.90;;;;;;4906931;29;20478;-60
2022/05/31 05:41:02;;;;;;;2.20;1.93;;;13.20;99.90;;;;;;4905740;29;20505;-60
2022/05/31 05:43:55;;;;;;;3.40;1.33;;;13.20;99.90;;;;;;4906746;29;20929;-60
2022/05/31 05:46:31;;;;;;;1.63;1.53;;;13.20;99.90;;;;;;4906252;29;20918;-60
2022/05/31 05:49:05;;;;;;;2.60;1.47;;;13.20;99.90;;;;;;4906540;29;20458;-60
2022/05/31 05:51:36;;;;;;;1.57;1.27;;;13.10;99.90;;;;;;4906373;29;20466;-60
2022/05/31 05:54:11;;;;;;;3.00;1.50;;;13.10;99.90;;;;;;4911481;29;20549;-60
2022/05/31 05:56:45;;;;;;;4.03;1.80;;;13.10;99.90;;;;;;4925424;29;20751;-60
2022/05/31 05:59:17;;;;;;;1.93;1.73;;;13.10;99.90;;;;;;4927903;29;20447;-59
2022/05/31 06:01:56;;;;;;;3.13;1.90;;;13.00;99.90;;;;;;4929033;29;20529;-60
2022/05/31 06:04:54;;;;;;;4.07;2.00;;;13.00;99.90;;;;;;4929010;29;20447;-59
2022/05/31 06:07:32;;;;;;;2.90;1.77;;;13.00;99.90;;;;;;4929409;29;20510;-60
2022/05/31 06:10:09;;;;;;;2.50;1.90;;;13.10;99.90;;;;;;4927821;29;20950;-60
2022/05/31 06:12:46;;;;;;;1.40;1.30;;;13.20;99.90;;;;;;4928958;29;20450;-59
2022/05/31 06:15:19;;;;;;;2.00;1.57;;;13.20;99.90;;;;;;4928754;29;20477;-59
2022/05/31 06:17:55;;;;;;;3.03;1.90;;;13.10;99.90;;;;;;4928918;29;20435;-60
2022/05/31 06:20:29;;;;;;;2.73;1.57;;;13.20;99.90;;;;;;4929198;29;20446;-60
2022/05/31 06:23:00;;;;;;;6.17;1.40;;;13.20;99.90;;;;;;4928686;29;20506;-60
2022/05/31 06:25:32;;;;;;;1.60;1.50;;;13.10;99.90;;;;;;4927939;29;20462;-60
2022/05/31 06:28:02;;;;;;;1.83;1.73;;;13.10;99.90;;;;;;4928837;29;20545;-60
2022/05/31 06:30:33;;;;;;;2.00;1.90;;;13.10;99.90;;;;;;4928658;29;20455;-60
2022/05/31 06:33:07;;;;;;;1.50;1.40;;;13.10;99.90;;;;;;4928616;29;20463;-60
2022/05/31 06:35:38;;;;;;;2.03;1.60;;;12.90;99.90;;;;;;4928930;29;20526;-60
2022/05/31 06:38:09;;;;;;;2.50;1.47;;;12.90;99.90;;;;;;4928842;29;20446;-60
2022/05/31 06:40:42;;;;;;;2.63;1.57;;;12.90;99.90;;;;;;4927478;29;20458;-60
2022/05/31 06:43:12;;;;;;;2.90;2.13;;;12.80;99.90;;;;;;4928507;29;20500;-60
2022/05/31 06:45:57;;;;;;;1.60;1.50;;;12.70;99.90;;;;;;4928467;29;20478;-60
2022/05/31 06:48:30;;;;;;;1.60;1.47;;;12.70;99.90;;;;;;4928523;29;20450;-60
2022/05/31 06:51:06;;;;;;;1.60;1.50;;;12.60;99.90;;;;;;4928553;29;20446;-60
2022/05/31 06:59:14;;;;;;;2.50;1.67;;;12.40;99.90;;;;;;4928241;29;20459;-60
2022/05/31 07:01:48;;;;;;;2.40;1.63;;;12.40;99.90;;;;;;4928398;29;20509;-60
2022/05/31 07:04:24;;;;;;;1.60;1.50;;;12.40;99.90;;;;;;4928071;29;20672;-60
2022/05/31 07:07:06;;;;;;;1.80;1.70;;;12.40;99.90;;;;;;4928494;29;20450;-60
2022/05/31 07:09:37;;;;;;;2.30;1.73;;;12.30;99.90;;;;;;4926430;29;20459;-60
2022/05/31 07:12:13;;;;;;;2.07;1.77;;;12.30;99.90;;;;;;4928190;29;20441;-59
2022/05/31 07:14:47;;;;;;;2.00;1.90;;;12.30;99.90;;;;;;4927942;29;20458;-59
2022/05/31 07:17:20;;;;;;;2.30;1.47;;;12.30;99.90;;;;;;4928148;29;20537;-59
2022/05/31 07:19:53;;;;;;;2.20;1.53;;;12.30;99.90;;;;;;4927735;29;20479;-60
2022/05/31 07:22:42;;;;;;;2.60;1.47;;;12.20;99.90;;;;;;4927792;29;20623;-60
2022/05/31 07:25:13;;;;;;;4.40;2.27;;;12.20;99.90;;;;;;4927064;29;20489;-60
2022/05/31 07:27:44;;;;;;;2.20;1.60;;;12.20;99.90;;;;;;4927956;29;20437;-60
2022/05/31 07:30:15;;;;;;;3.20;1.50;;;12.20;99.90;;;;;;4927616;29;20525;-60
2022/05/31 07:32:57;;;;;;;2.37;1.70;;;12.20;99.90;;;;;;4927662;29;20474;-61
2022/05/31 07:35:52;;;;;;;1.97;1.77;;;12.10;99.90;;;;;;4927462;29;20453;-60
2022/05/31 07:38:28;;;;;;;1.90;1.80;;;12.10;99.90;;;;;;4927602;29;20454;-60
2022/05/31 07:40:59;;;;;;;2.00;1.80;;;12.10;99.90;;;;;;4926249;29;20461;-60
2022/05/31 07:43:32;;;;;;;1.90;1.67;;;12.10;99.90;;;;;;4927232;29;20517;-60
2022/05/31 07:46:10;;;;;;;1.60;1.50;;;12.00;99.90;;;;;;4927058;29;20497;-60
2022/05/31 07:48:44;;;;;;;3.00;2.00;;;12.00;99.90;;;;;;4927362;29;20492;-60
2022/05/31 07:51:19;;;;;;;1.80;1.70;;;12.00;99.90;;;;;;4927225;29;20536;-60
2022/05/31 07:53:52;;;;;;;3.13;1.90;;;12.10;99.90;;;;;;4926068;29;20543;-60
2022/05/31 07:56:34;;;;;;;2.20;1.70;;;12.10;99.90;;;;;;4927333;29;20526;-60
2022/05/31 07:59:06;;;;;;;1.70;1.60;;;12.00;99.90;;;;;;4926779;29;20453;-60
2022/05/31 08:01:37;;;;;;;1.93;1.73;;;12.00;99.90;;;;;;4927084;29;20451;-61
2022/05/31 08:04:08;;;;;;;2.70;1.77;;;12.00;99.90;;;;;;4926867;29;20476;-60
2022/05/31 08:06:41;;;;;;;2.07;1.87;;;12.00;99.90;;;;;;4927340;29;20447;-60
2022/05/31 08:09:12;;;;;;;3.10;2.03;;;12.00;99.90;;;;;;4925728;29;20477;-60
2022/05/31 08:11:55;;;;;;;4.30;2.30;;;12.00;99.90;;;;;;4926679;29;20493;-60
2022/05/31 08:14:27;;;;;;;3.47;1.93;;;11.90;99.90;;;;;;4926329;29;20470;-60
2022/05/31 08:16:59;;;;;;;3.53;2.23;;;11.90;99.90;;;;;;4926836;29;20454;-60
2022/05/31 08:19:30;;;;;;;2.30;1.93;;;11.90;99.90;;;;;;4926467;29;20446;-60
2022/05/31 08:22:02;;;;;;;2.07;1.83;;;11.80;99.90;;;;;;4926033;29;20482;-60
2022/05/31 08:24:37;;;;;;;3.90;2.00;;;11.80;99.90;;;;;;4925503;29;20517;-60
2022/05/31 08:27:18;;;;;;;2.47;1.97;;;11.60;99.90;;;;;;4926477;29;20557;-60
2022/05/31 08:29:49;;;;;;;2.17;1.97;;;11.60;99.90;;;;;;4926316;29;20564;-60
2022/05/31 08:32:32;;;;;;;2.30;2.10;;;11.50;99.90;;;;;;4926716;29;20457;-61
2022/05/31 08:35:08;;;;;;;2.20;2.00;;;11.50;99.90;;;;;;4925932;29;20461;-60
2022/05/31 08:37:42;;;;;;;2.67;2.00;;;11.40;99.90;;;;;;4926433;29;20439;-61
2022/05/31 08:40:14;;;;;;;2.13;1.80;;;11.40;99.90;;;;;;4925779;29;20435;-60
2022/05/31 08:42:53;;;;;;;2.27;1.93;;;11.40;99.90;;;;;;4926380;29;20495;-62
2022/05/31 08:45:38;;;;;;;4.93;2.20;;;11.40;99.90;;;;;;4925997;29;20493;-63
2022/05/31 08:48:23;;;;;;;2.83;2.63;;;11.40;99.90;;;;;;4926314;29;20526;-61
2022/05/31 08:57:01;;;;;;;2.73;2.10;;;11.60;99.90;;;;;;4926301;29;20482;-60
2022/05/31 08:59:41;;;;;;;3.53;2.57;;;11.60;99.90;;;;;;4926067;29;20558;-60
2022/05/31 09:02:25;;;;;;;2.83;1.87;;;11.70;99.90;;;;;;4926231;29;20458;-60
2022/05/31 09:05:21;;;;;;;3.30;1.83;;;11.80;99.90;;;;;;4925543;29;20442;-60
2022/05/31 09:07:58;;;;;;;4.23;2.30;;;11.80;99.90;;;;;;4926258;29;20458;-60
2022/05/31 09:10:35;;;;;;;2.70;2.10;;;11.90;99.90;;;;;;4925371;29;20462;-60
2022/05/31 09:13:12;;;;;;;2.70;2.10;;;11.90;99.90;;;;;;4926172;29;20455;-60
2022/05/31 09:15:48;;;;;;;5.70;2.23;;;11.90;99.90;;;;;;4925660;29;20552;-60
2022/05/31 09:18:26;;;;;;;2.50;2.10;;;11.90;99.90;;;;;;4925928;29;20455;-60
2022/05/31 09:21:00;;;;;;;2.30;1.90;;;12.00;99.90;;;;;;4925804;29;20838;-60
2022/05/31 09:23:38;;;;;;;2.97;2.20;;;11.90;99.90;;;;;;4925917;29;20490;-60
2022/05/31 09:26:26;;;;;;;1.90;1.63;;;11.90;99.90;;;;;;4925798;29;20430;-59
2022/05/31 09:29:08;;;;;;;1.57;1.47;;;11.80;99.90;;;;;;4926005;29;20431;-59
2022/05/31 09:31:49;;;;;;;2.07;1.87;;;11.80;99.90;;;;;;4925730;29;20454;-59
2022/05/31 09:34:41;;;;;;;3.97;1.70;;;11.70;99.90;;;;;;4928496;29;20450;-59
2022/05/31 09:37:24;;;;;;;2.10;1.90;;;11.70;99.90;;;;;;4929782;29;20454;-59
2022/05/31 09:40:10;;;;;;;1.67;1.57;;;11.60;99.90;;;;;;4928277;29;20454;-59
2022/05/31 09:42:54;;;;;;;2.33;2.13;;;11.60;99.90;;;;;;4929471;29;20637;-59
2022/05/31 09:45:30;;;;;;;1.80;1.70;;;11.50;99.90;;;;;;4929104;29;20514;-59
2022/05/31 09:48:03;;;;;;;2.10;1.73;;;11.40;99.90;;;;;;4929620;29;20470;-60
2022/05/31 09:50:38;;;;;;;3.63;2.00;;;11.50;99.90;;;;;;4929480;29;20761;-59
2022/05/31 09:59:11;;;;;;;2.57;1.87;;;11.50;99.90;;;;;;4928992;29;20467;-59
2022/05/31 10:01:46;;;;;;;3.43;2.33;;;11.70;99.90;;;;;;4929359;29;20473;-59
2022/05/31 10:04:26;;;;;;;2.63;2.13;;;11.70;99.90;;;;;;4928815;29;20519;-59
2022/05/31 10:07:03;;;;;;;3.13;2.73;;;11.80;99.90;;;;;;4929432;29;20493;-60
2022/05/31 10:09:38;;;;;;;2.23;2.00;;;11.80;99.90;;;;;;4928027;29;20457;-60
2022/05/31 10:12:26;;;;;;;2.47;1.97;;;11.80;99.90;;;;;;4929234;29;20446;-59
2022/05/31 10:15:03;;;;;;;3.93;2.00;;;11.90;99.90;;;;;;4928600;29;20458;-60
2022/05/31 10:17:38;;;;;;;2.93;2.00;;;11.90;99.90;;;;;;4929328;29;20960;-59
2022/05/31 10:20:15;;;;;;;2.17;1.90;;;11.90;99.90;;;;;;4928866;29;20465;-59
2022/05/31 10:22:58;;;;;;;2.47;2.07;;;11.80;99.90;;;;;;4928886;29;20462;-59
2022/05/31 10:25:31;;;;;;;3.33;2.23;;;11.80;99.90;;;;;;4927508;29;20454;-59
2022/05/31 10:28:06;;;;;;;5.90;2.30;;;11.90;99.90;;;;;;4929153;29;20868;-59
2022/05/31 10:30:40;;;;;;;3.10;2.00;;;11.80;99.90;;;;;;4928559;29;20458;-60
2022/05/31 10:33:21;;;;;;;3.47;2.20;;;11.80;99.90;;;;;;4928878;29;20483;-59
2022/05/31 10:36:09;;;;;;;4.60;2.10;;;11.70;99.90;;;;;;4928662;29;20454;-59
2022/05/31 10:38:49;;;;;;;2.30;2.10;;;11.60;99.90;;;;;;4929160;29;20474;-60
2022/05/31 10:41:32;;;;;;;2.60;2.40;;;11.60;99.90;;;;;;4928667;29;20467;-60
2022/05/31 10:44:35;;;;;;;2.30;2.07;;;11.60;99.90;;;;;;4927502;29;20854;-60
2022/05/31 10:47:15;;;;;;;2.20;2.00;;;11.60;99.90;;;;;;4928432;29;20457;-60
2022/05/31 10:49:47;;;;;;;2.43;2.00;;;11.50;99.90;;;;;;4928209;29;20931;-60
2022/05/31 10:52:28;;;;;;;2.90;1.80;;;11.40;99.90;;;;;;4928547;29;20454;-60
2022/05/31 10:55:15;;;;;;;3.37;2.40;;;11.40;99.90;;;;;;4927221;29;20455;-60
2022/05/31 10:58:01;;;;;;;2.40;2.20;;;11.40;99.90;;;;;;4928496;29;20435;-60
2022/05/31 11:00:38;;;;;;;3.60;2.07;;;11.40;99.90;;;;;;4927602;29;20454;-59
2022/05/31 11:03:35;;;;;;;5.33;2.10;;;11.40;99.90;;;;;;4928524;29;20451;-60
2022/05/31 11:06:24;;;;;;;3.13;2.57;;;11.30;99.90;;;;;;4927979;29;20510;-60
2022/05/31 11:12:20;;;;;;;3.60;2.20;;;11.30;99.90;;;;;;4928471;29;20435;-60
2022/05/31 11:15:07;;;;;;;2.60;1.97;;;11.30;99.90;;;;;;4927856;29;20454;-60
2022/05/31 11:18:05;;;;;;;2.03;1.90;;;11.30;99.90;;;;;;4925006;29;20459;-60
2022/05/31 11:20:45;;;;;;;2.87;2.67;;;11.30;99.90;;;;;;4927716;29;20586;-59
2022/05/31 11:23:34;;;;;;;3.23;2.03;;;11.20;99.90;;;;;;4927695;29;20545;-60
2022/05/31 11:26:30;;;;;;;2.83;2.10;;;11.10;99.90;;;;;;4926766;29;20465;-60
2022/05/31 11:29:56;;;;;;;3.47;2.57;;;11.00;99.90;;;;;;4927621;29;20498;-60
2022/05/31 11:32:43;;;;;;;2.37;2.17;;;10.90;99.90;;;;;;4927492;29;20457;-60
2022/05/31 11:35:34;;;;;;;2.27;2.07;;;10.80;99.90;;;;;;4927120;29;20458;-60
2022/05/31 11:38:13;;;;;;;2.33;2.03;;;10.70;99.90;;;;;;4927568;29;20459;-60
2022/05/31 11:41:02;;;;;;;2.90;2.37;;;10.60;99.90;;;;;;4926506;29;20463;-60
2022/05/31 11:44:17;;;;;;;4.60;2.40;;;10.60;99.90;;;;;;4927256;29;20833;-60
2022/05/31 11:47:00;;;;;;;5.13;2.50;;;10.50;99.90;;;;;;4927050;29;20478;-60
2022/05/31 11:49:42;;;;;;;3.10;2.27;;;10.50;99.90;;;;;;4926870;29;20465;-60
2022/05/31 11:52:28;;;;;;;2.97;2.77;;;10.40;99.90;;;;;;4927168;29;20431;-62
2022/05/31 11:55:28;;;;;;;4.57;2.87;;;10.40;99.90;;;;;;4926420;29;21006;-60
2022/05/31 11:58:12;;;;;;;3.57;2.33;;;10.30;99.90;;;;;;4927193;29;20450;-60
2022/05/31 12:00:51;;;;;;;4.63;2.67;;;10.20;99.90;;;;;;4927038;29;20975;-60
2022/05/31 12:03:30;;;;;;;3.27;2.57;;;10.20;99.90;;;;;;4926886;29;20470;-60
2022/05/31 12:06:10;;;;;;;3.00;2.77;;;10.20;99.90;;;;;;4926605;29;20472;-59
2022/05/31 12:08:54;;;;;;;2.37;2.17;;;10.20;99.90;;;;;;4926281;29;20637;-60
2022/05/31 12:11:36;;;;;;;3.80;2.70;;;10.20;99.90;;;;;;4926927;29;20525;-60
2022/05/31 12:14:13;;;;;;;3.20;2.53;;;10.10;99.90;;;;;;4926615;29;20480;-60
2022/05/31 12:16:46;;;;;;;4.73;2.90;;;10.10;99.90;;;;;;4926850;29;20451;-60
2022/05/31 12:19:27;;;;;;;5.00;3.37;;;10.10;99.90;;;;;;4926557;29;20510;-60
2022/05/31 12:22:08;;;;;;;3.20;2.90;;;10.10;99.90;;;;;;4926527;29;20474;-60
2022/05/31 12:24:45;;;;;;;6.20;3.60;;;10.00;99.90;;;;;;4925340;29;20501;-60
2022/05/31 12:27:21;;;;;;;3.57;2.50;;;10.00;99.90;;;;;;4926526;29;20482;-60
2022/05/31 12:29:57;;;;;;;2.87;2.63;;;9.90;99.90;;;;;;4926143;29;20454;-60
2022/05/31 12:32:44;;;;;;;4.27;2.57;;;9.90;99.90;;;;;;4926329;29;20451;-60
2022/05/31 12:35:55;;;;;;;3.63;2.70;;;9.80;99.90;;;;;;4926370;29;20497;-60
2022/05/31 12:38:28;;;;;;;2.88;2.65;;;9.90;99.90;;;;;;4926235;29;20610;-60
2022/05/31 12:41:01;;;;;;;3.45;3.15;;;9.90;99.90;;;;;;4925469;29;20194;-60
2022/05/31 12:43:55;;;;;;;3.37;3.07;;;9.90;99.90;;;;;;4926698;29;20194;-60
2022/05/31 12:46:37;;;;;;;5.90;3.77;;;9.90;99.90;;;;;;4926095;29;20537;-60
2022/05/31 12:49:20;;;;;;;4.03;3.50;;;9.90;99.90;;;;;;4926011;29;20451;-60
2022/05/31 12:55:18;;;;;;;3.50;3.00;;;9.90;99.90;;;;;;4924616;29;20458;-59
2022/05/31 13:00:57;;;;;;;3.40;3.10;;;9.90;99.90;;;;;;4925990;29;20458;-59
2022/05/31 13:03:58;;;;;;;3.33;3.10;;;9.90;99.90;;;;;;4925869;29;20462;-59
2022/05/31 13:06:38;;;;;;;4.90;2.60;;;9.90;99.90;;;;;;4926080;29;20458;-59
2022/05/31 13:09:32;;;;;;;4.70;3.28;;;9.90;99.90;;;;;;4924308;29;20469;-60
2022/05/31 13:20:41;;;;;;;5.07;3.30;;;9.90;99.90;;;;;;4925705;29;20439;-60
2022/05/31 13:23:17;;;;;;;3.20;2.87;;;9.90;99.90;;;;;;4926167;29;20423;-59
2022/05/31 13:25:56;;;;;;;3.00;2.70;;;9.90;99.90;;;;;;4925085;29;20490;-60
2022/05/31 13:28:30;;;;;;;4.80;2.85;;;9.80;99.90;;;;;;4925611;29;20458;-60
2022/05/31 13:31:04;;;;;;;3.28;2.97;;;9.90;99.90;;;;;;4925701;29;20229;-60
2022/05/31 13:33:37;;;;;;;3.10;2.55;;;10.00;99.90;;;;;;4925946;29;20246;-59
2022/05/31 13:36:15;;;;;;;3.57;2.90;;;10.00;99.90;;;;;;4925538;29;20215;-59
2022/05/31 13:38:48;;;;;;;3.43;3.10;;;10.00;99.90;;;;;;4925267;29;20868;-59
2022/05/31 13:41:22;;;;;;;3.77;2.90;;;10.10;99.90;;;;;;4925725;29;20439;-58
2022/05/31 13:43:56;;;;;;;4.20;2.90;;;10.10;99.90;;;;;;4925469;29;20447;-58
2022/05/31 13:46:40;;;;;;;3.95;2.80;;;10.20;99.90;;;;;;4925292;29;20486;-59
2022/05/31 13:49:22;;;;;;;3.70;3.27;;;10.20;99.90;;;;;;4924999;29;20221;-59
2022/05/31 13:51:57;;;;;;;3.28;3.00;;;10.30;99.90;;;;;;4925573;29;20572;-59
2022/05/31 13:54:47;;;;;;;4.67;3.10;;;10.40;99.90;;;;;;4924376;29;20274;-58
2022/05/31 13:57:24;;;;;;;3.40;3.10;;;10.40;99.90;;;;;;4925492;29;20450;-59
2022/05/31 13:59:57;;;;;;;3.53;3.20;;;10.40;99.90;;;;;;4925433;29;20435;-57
2022/05/31 14:02:48;;;;;;;3.83;3.50;;;10.40;99.90;;;;;;4925890;29;20435;-60
2022/05/31 14:05:29;;;;;;;7.80;3.53;;;10.50;99.90;;;;;;4925023;29;20494;-60
2022/05/31 14:08:03;;;;;;;5.00;3.80;;;10.60;99.90;;;;;;4914279;29;20927;-60
2022/05/31 14:10:48;;;;;;;5.10;3.13;;;10.60;99.90;;;;;;4905492;29;21018;-58
2022/05/31 14:13:26;;;;;;;3.67;3.13;;;10.70;99.90;;;;;;4906484;29;20971;-58
2022/05/31 14:16:17;;;;;;;3.77;3.47;;;10.80;99.90;;;;;;4906331;29;20536;-59
2022/05/31 14:18:53;;;;;;;3.70;3.40;;;10.80;99.90;;;;;;4906292;29;20460;-59
2022/05/31 14:21:28;;;;;;;3.53;3.23;;;10.90;99.90;;;;;;4909936;29;20443;-60
2022/05/31 14:24:00;;;;;;;3.67;3.00;;;11.10;99.90;;;;;;4908921;29;20442;-59
2022/05/31 14:26:36;;;;;;;4.23;3.10;;;11.20;99.90;;;;;;4909556;29;20569;-60